Terminal Aerodrome Forecast
Issued by NWS

Home | Current Version | Previous Version | Text Only | Print | Product List | Glossary On
Versions: 1 2 3 4 5 6 7 8 9 10 11 12 13 14 15 16 17 18 19 20 21 22 23 24
000
FTUS43 KPAH 052225 AAB
TAFCGI
TAF AMD
KCGI 052225Z 0522/0618 VRB03KT P6SM FEW045
     FM060100 00000KT 4SM BR SCT250
     FM060700 00000KT 2SM BR SCT250
      TEMPO 0609/0613 3/4SM BR VV003
     FM061500 21010KT P6SM SCT030=

USA.gov is the U.S. government's official web portal to all federal, state and local government web resources and services.